createdAt,value
2017-09-25T00:00:36.071Z,17.72
2017-09-25T00:01:36.047Z,17.7
2017-09-25T00:02:36.027Z,17.72
2017-09-25T00:03:36.382Z,17.67
2017-09-25T00:04:36.387Z,17.7
2017-09-25T00:05:36.382Z,17.71
2017-09-25T00:06:35.970Z,17.74
2017-09-25T00:07:35.949Z,17.67
2017-09-25T00:08:36.250Z,17.64
2017-09-25T00:09:36.295Z,17.68
2017-09-25T00:10:35.903Z,17.7
2017-09-25T00:11:36.205Z,17.64
2017-09-25T00:12:36.179Z,17.64
2017-09-25T00:13:35.912Z,17.67
2017-09-25T00:14:35.853Z,17.64
2017-09-25T00:15:35.920Z,17.51
2017-09-25T00:16:36.219Z,17.54
2017-09-25T00:17:36.129Z,17.6
2017-09-25T00:18:36.090Z,17.56
2017-09-25T00:19:36.130Z,17.51
2017-09-25T00:20:36.110Z,17.52
2017-09-25T00:21:36.030Z,17.52
2017-09-25T00:22:36.045Z,17.45
2017-09-25T00:23:35.709Z,17.6
2017-09-25T00:24:36.001Z,17.42
2017-09-25T00:25:36.000Z,17.45
2017-09-25T00:26:35.959Z,17.46
2017-09-25T00:27:35.982Z,17.42
2017-09-25T00:28:35.928Z,17.44
2017-09-25T00:29:35.896Z,17.4
2017-09-25T00:30:35.614Z,17.46
2017-09-25T00:31:35.861Z,17.42
2017-09-25T00:32:35.851Z,17.45
2017-09-25T00:33:35.841Z,17.52
2017-09-25T00:34:35.520Z,17.52
2017-09-25T00:35:35.182Z,17.49
2017-09-25T00:36:35.479Z,17.45
2017-09-25T00:37:35.470Z,17.39
2017-09-25T00:38:35.439Z,17.33
2017-09-25T00:39:35.735Z,17.42
2017-09-25T00:40:35.819Z,17.33
2017-09-25T00:41:35.403Z,17.31
2017-09-25T00:42:35.370Z,17.36
2017-09-25T00:43:35.369Z,17.3
2017-09-25T00:44:35.029Z,17.3
2017-09-25T00:45:35.650Z,17.31
2017-09-25T00:46:35.631Z,17.27
2017-09-25T00:47:35.611Z,17.34
2017-09-25T00:48:35.584Z,17.34
2017-09-25T00:49:35.262Z,17.31
2017-09-25T00:50:35.560Z,17.3
2017-09-25T00:51:35.219Z,17.3
2017-09-25T00:52:35.513Z,17.37
2017-09-25T00:53:35.189Z,17.37
2017-09-25T00:54:35.188Z,17.22
2017-09-25T00:55:35.161Z,17.19
2017-09-25T00:56:35.449Z,17.14
2017-09-25T00:57:35.440Z,17.15
2017-09-25T00:58:35.419Z,17.16
2017-09-25T00:59:35.401Z,17.15
2017-09-25T01:00:35.389Z,17.15
2017-09-25T01:01:35.361Z,17.22
2017-09-25T01:02:35.349Z,17.15
2017-09-25T01:03:35.022Z,17.21
2017-09-25T01:04:35.316Z,17.22
2017-09-25T01:05:34.991Z,17.18
2017-09-25T01:06:35.297Z,17.19
2017-09-25T01:07:34.963Z,17.16
2017-09-25T01:08:34.630Z,17.12
2017-09-25T01:09:35.250Z,17.15
2017-09-25T01:10:34.909Z,17.15
2017-09-25T01:11:34.887Z,17.15
2017-09-25T01:12:35.180Z,17.19
2017-09-25T01:13:34.863Z,17.16
2017-09-25T01:14:34.530Z,17.15
2017-09-25T01:15:35.132Z,17.15
2017-09-25T01:16:35.112Z,17.06
2017-09-25T01:17:34.811Z,17.01
2017-09-25T01:18:35.080Z,16.97
2017-09-25T01:19:34.759Z,16.9
2017-09-25T01:20:35.048Z,16.89
2017-09-25T01:21:34.721Z,16.93
2017-09-25T01:22:35.020Z,16.94
2017-09-25T01:23:34.699Z,16.87
2017-09-25T01:24:34.369Z,16.94
2017-09-25T01:25:34.973Z,16.94
2017-09-25T01:26:34.341Z,17.09
2017-09-25T01:27:34.970Z,17.01
2017-09-25T01:28:34.918Z,16.98
2017-09-25T01:29:34.588Z,17.09
2017-09-25T01:30:34.882Z,17.06
2017-09-25T01:31:34.659Z,17.12
2017-09-25T01:32:34.536Z,17.03
2017-09-25T01:33:34.643Z,16.97
2017-09-25T01:34:34.510Z,16.98
2017-09-25T01:35:34.810Z,16.96
2017-09-25T01:36:34.471Z,16.94
2017-09-25T01:37:34.768Z,16.85
2017-09-25T01:38:34.439Z,16.9
2017-09-25T01:39:34.759Z,16.91
2017-09-25T01:40:34.107Z,16.96
2017-09-25T01:41:34.479Z,16.97
2017-09-25T01:42:34.700Z,16.96
2017-09-25T01:43:34.666Z,16.97
2017-09-25T01:44:34.336Z,16.87
2017-09-25T01:45:34.378Z,16.91
2017-09-25T01:46:34.620Z,16.93
2017-09-25T01:47:34.381Z,16.85
2017-09-25T01:48:34.580Z,16.85
2017-09-25T01:49:34.271Z,16.89
2017-09-25T01:50:33.929Z,16.89
2017-09-25T01:51:34.229Z,16.83
2017-09-25T01:52:34.510Z,16.85
2017-09-25T01:53:34.191Z,16.81
2017-09-25T01:54:34.482Z,16.81
2017-09-25T01:55:34.470Z,16.81
2017-09-25T01:56:34.128Z,16.79
2017-09-25T01:57:34.430Z,16.81
2017-09-25T01:58:34.095Z,16.93
2017-09-25T01:59:34.094Z,16.85
2017-09-25T02:00:34.382Z,16.83
2017-09-25T02:01:34.046Z,16.79
2017-09-25T02:02:34.350Z,16.81
2017-09-25T02:03:34.316Z,16.85
2017-09-25T02:04:33.716Z,16.91
2017-09-25T02:05:33.979Z,16.85
2017-09-25T02:06:33.656Z,16.85
2017-09-25T02:07:33.948Z,16.87
2017-09-25T02:08:33.629Z,16.82
2017-09-25T02:09:34.219Z,16.83
2017-09-25T02:10:33.887Z,16.9
2017-09-25T02:11:33.881Z,16.91
2017-09-25T02:12:33.869Z,16.91
2017-09-25T02:13:34.157Z,16.91
2017-09-25T02:14:33.530Z,16.94
2017-09-25T02:15:33.828Z,16.91
2017-09-25T02:16:33.791Z,16.87
2017-09-25T02:17:33.470Z,16.82
2017-09-25T02:18:33.832Z,16.75
2017-09-25T02:19:34.068Z,16.76
2017-09-25T02:20:34.030Z,16.76
2017-09-25T02:21:33.719Z,16.79
2017-09-25T02:22:33.391Z,16.66
2017-09-25T02:23:33.710Z,16.72
2017-09-25T02:24:33.970Z,16.66
2017-09-25T02:25:33.959Z,16.71
2017-09-25T02:26:33.640Z,16.71
2017-09-25T02:27:33.630Z,16.63
2017-09-25T02:28:33.918Z,16.57
2017-09-25T02:29:33.579Z,16.74
2017-09-25T02:30:33.868Z,16.57
2017-09-25T02:31:33.540Z,16.75
2017-09-25T02:32:33.559Z,16.69
2017-09-25T02:33:33.818Z,16.64
2017-09-25T02:34:33.489Z,16.75
2017-09-25T02:35:33.789Z,16.76
2017-09-25T02:36:33.789Z,16.85
2017-09-25T02:37:33.757Z,16.71
2017-09-25T02:38:33.442Z,16.71
2017-09-25T02:39:33.101Z,16.74
2017-09-25T02:40:33.700Z,16.74
2017-09-25T02:41:33.700Z,16.76
2017-09-25T02:42:33.672Z,16.69
2017-09-25T02:43:33.647Z,16.64
2017-09-25T02:44:33.640Z,16.74
2017-09-25T02:45:33.626Z,16.69
2017-09-25T02:46:33.618Z,16.71
2017-09-25T02:47:33.610Z,16.68
2017-09-25T02:48:33.559Z,16.66
2017-09-25T02:49:33.263Z,16.79
2017-09-25T02:50:33.218Z,16.68
2017-09-25T02:51:33.209Z,16.75
2017-09-25T02:52:33.503Z,16.74
2017-09-25T02:53:33.182Z,16.68
2017-09-25T02:54:33.471Z,16.72
2017-09-25T02:55:33.460Z,16.6
2017-09-25T02:56:33.432Z,16.69
2017-09-25T02:57:33.110Z,16.76
2017-09-25T02:58:33.411Z,16.71
2017-09-25T02:59:33.380Z,16.81
2017-09-25T03:00:33.051Z,16.78
2017-09-25T03:01:33.030Z,16.81
2017-09-25T03:02:33.319Z,16.69
2017-09-25T03:03:33.017Z,16.83
2017-09-25T03:04:33.284Z,16.64
2017-09-25T03:05:32.980Z,16.68
2017-09-25T03:06:33.268Z,16.76
2017-09-25T03:07:33.249Z,16.61
2017-09-25T03:08:33.221Z,16.58
2017-09-25T03:09:32.909Z,16.61
2017-09-25T03:10:32.870Z,16.69
2017-09-25T03:11:33.228Z,16.69
2017-09-25T03:12:33.151Z,16.72
2017-09-25T03:13:32.889Z,16.76
2017-09-25T03:14:32.813Z,16.71
2017-09-25T03:15:33.190Z,16.66
2017-09-25T03:16:33.090Z,16.66
2017-09-25T03:17:32.791Z,16.74
2017-09-25T03:18:33.054Z,16.63
2017-09-25T03:19:33.030Z,16.58
2017-09-25T03:20:33.018Z,16.54
2017-09-25T03:21:33.022Z,16.57
2017-09-25T03:22:32.930Z,16.6
2017-09-25T03:23:32.701Z,16.57
2017-09-25T03:24:32.650Z,16.54
2017-09-25T03:25:32.702Z,16.56
2017-09-25T03:26:32.608Z,16.63
2017-09-25T03:27:33.060Z,16.6
2017-09-25T03:28:32.949Z,16.58
2017-09-25T03:29:32.569Z,16.57
2017-09-25T03:30:32.909Z,16.61
2017-09-25T03:31:32.633Z,16.64
2017-09-25T03:32:32.897Z,16.66
2017-09-25T03:33:32.910Z,16.63
2017-09-25T03:34:32.469Z,16.6
2017-09-25T03:35:32.460Z,16.61
2017-09-25T03:36:32.119Z,16.6
2017-09-25T03:37:32.779Z,16.69
2017-09-25T03:38:32.809Z,16.58
2017-09-25T03:39:32.689Z,16.6
2017-09-25T03:40:32.673Z,16.6
2017-09-25T03:41:32.388Z,16.57
2017-09-25T03:42:32.350Z,16.61
2017-09-25T03:43:32.319Z,16.75
2017-09-25T03:44:32.660Z,16.71
2017-09-25T03:45:32.290Z,16.72
2017-09-25T03:46:32.580Z,16.64
2017-09-25T03:47:32.241Z,16.75
2017-09-25T03:48:32.258Z,16.71
2017-09-25T03:49:32.220Z,16.72
2017-09-25T03:50:32.518Z,16.74
2017-09-25T03:51:31.859Z,16.66
2017-09-25T03:52:32.553Z,16.72
2017-09-25T03:53:31.840Z,16.72
2017-09-25T03:54:32.500Z,16.71
2017-09-25T03:55:32.123Z,16.74
2017-09-25T03:56:32.528Z,16.68
2017-09-25T03:57:32.078Z,16.74
2017-09-25T03:58:32.412Z,16.69
2017-09-25T03:59:32.045Z,16.74
2017-09-25T04:00:32.022Z,16.6
2017-09-25T04:01:32.330Z,16.6
2017-09-25T04:02:32.325Z,16.64
2017-09-25T04:03:31.672Z,16.61
2017-09-25T04:04:31.959Z,16.64
2017-09-25T04:05:32.250Z,16.64
2017-09-25T04:06:31.920Z,16.63
2017-09-25T04:07:32.220Z,16.63
2017-09-25T04:08:32.201Z,16.63
2017-09-25T04:09:31.563Z,16.64
2017-09-25T04:10:31.859Z,16.6
2017-09-25T04:11:31.850Z,16.58
2017-09-25T04:12:32.120Z,16.58
2017-09-25T04:13:31.799Z,16.75
2017-09-25T04:14:31.789Z,16.71
2017-09-25T04:15:31.780Z,16.76
2017-09-25T04:16:31.769Z,16.81
2017-09-25T04:17:32.079Z,16.66
2017-09-25T04:18:31.720Z,16.74
2017-09-25T04:19:32.026Z,16.74
2017-09-25T04:20:31.682Z,16.71
2017-09-25T04:21:31.673Z,16.58
2017-09-25T04:22:31.655Z,16.6
2017-09-25T04:23:32.016Z,16.6
2017-09-25T04:24:31.613Z,16.54
2017-09-25T04:25:31.609Z,16.61
2017-09-25T04:26:31.899Z,16.61
2017-09-25T04:27:31.987Z,16.64
2017-09-25T04:28:31.870Z,16.58
2017-09-25T04:29:31.539Z,16.69
2017-09-25T04:30:31.519Z,16.75
2017-09-25T04:31:31.487Z,16.64
2017-09-25T04:32:31.171Z,16.63
2017-09-25T04:33:31.459Z,16.56
2017-09-25T04:34:31.452Z,16.72
2017-09-25T04:35:31.119Z,16.68
2017-09-25T04:36:31.420Z,16.64
2017-09-25T04:37:31.409Z,16.61
2017-09-25T04:38:31.381Z,16.61
2017-09-25T04:39:31.364Z,16.56
2017-09-25T04:40:31.042Z,16.63
2017-09-25T04:41:31.339Z,16.61
2017-09-25T04:42:31.319Z,16.6
2017-09-25T04:43:31.301Z,16.63
2017-09-25T04:44:30.968Z,16.6
2017-09-25T04:45:31.579Z,16.51
2017-09-25T04:46:30.939Z,16.6
2017-09-25T04:47:31.221Z,16.53
2017-09-25T04:48:31.211Z,16.6
2017-09-25T04:49:30.891Z,16.6
2017-09-25T04:50:31.480Z,16.66
2017-09-25T04:51:31.170Z,16.58
2017-09-25T04:52:31.449Z,16.61
2017-09-25T04:53:31.462Z,16.57
2017-09-25T04:54:31.443Z,16.56
2017-09-25T04:55:30.783Z,16.61
2017-09-25T04:56:31.074Z,16.6
2017-09-25T04:57:31.370Z,16.64
2017-09-25T04:58:31.362Z,16.64
2017-09-25T04:59:31.357Z,16.6
2017-09-25T05:00:31.310Z,16.61
2017-09-25T05:01:31.303Z,16.61
2017-09-25T05:02:31.291Z,16.63
2017-09-25T05:03:31.269Z,16.63
2017-09-25T05:04:31.260Z,16.63
2017-09-25T05:05:31.230Z,16.61
2017-09-25T05:06:31.212Z,16.58
2017-09-25T05:07:31.226Z,16.58
2017-09-25T05:08:30.960Z,16.6
2017-09-25T05:09:30.538Z,16.58
2017-09-25T05:10:30.953Z,16.66
2017-09-25T05:11:31.132Z,16.6
2017-09-25T05:12:30.800Z,16.6
2017-09-25T05:13:30.790Z,16.71
2017-09-25T05:14:31.083Z,16.71
2017-09-25T05:15:31.060Z,16.75
2017-09-25T05:16:31.082Z,16.72
2017-09-25T05:17:31.061Z,16.74
2017-09-25T05:18:31.010Z,16.61
2017-09-25T05:19:30.990Z,16.58
2017-09-25T05:20:30.661Z,16.68
2017-09-25T05:21:30.647Z,16.63
2017-09-25T05:22:30.630Z,16.6
2017-09-25T05:23:30.929Z,16.57
2017-09-25T05:24:30.920Z,16.56
2017-09-25T05:25:30.903Z,16.58
2017-09-25T05:26:30.864Z,16.64
2017-09-25T05:27:30.539Z,16.64
2017-09-25T05:28:30.842Z,16.68
2017-09-25T05:29:30.819Z,16.72
2017-09-25T05:30:30.489Z,16.64
2017-09-25T05:31:30.790Z,16.64
2017-09-25T05:32:30.770Z,16.75
2017-09-25T05:33:30.759Z,16.72
2017-09-25T05:34:30.727Z,16.58
2017-09-25T05:35:30.721Z,16.6
2017-09-25T05:36:30.707Z,16.58
2017-09-25T05:37:30.691Z,16.64
2017-09-25T05:38:30.681Z,16.64
2017-09-25T05:39:30.641Z,16.64
2017-09-25T05:40:30.630Z,16.63
2017-09-25T05:41:30.328Z,16.61
2017-09-25T05:42:30.351Z,16.63
2017-09-25T05:43:30.587Z,16.6
2017-09-25T05:44:30.250Z,16.58
2017-09-25T05:45:29.926Z,16.56
2017-09-25T05:46:30.219Z,16.63
2017-09-25T05:47:30.204Z,16.64
2017-09-25T05:48:30.508Z,16.75
2017-09-25T05:49:30.480Z,16.61
2017-09-25T05:50:30.151Z,16.61
2017-09-25T05:51:30.157Z,16.57
2017-09-25T05:52:29.811Z,16.58
2017-09-25T05:53:30.409Z,16.53
2017-09-25T05:54:30.419Z,16.46
2017-09-25T05:55:30.403Z,16.38
2017-09-25T05:56:30.052Z,16.42
2017-09-25T05:57:30.031Z,16.51
2017-09-25T05:58:30.031Z,16.53
2017-09-25T05:59:29.999Z,16.57
2017-09-25T06:00:29.983Z,16.43
2017-09-25T06:01:30.056Z,16.46
2017-09-25T06:02:29.949Z,16.46
2017-09-25T06:03:29.620Z,16.54
2017-09-25T06:04:30.216Z,16.64
2017-09-25T06:05:30.200Z,16.76
2017-09-25T06:06:30.209Z,16.64
2017-09-25T06:07:30.181Z,16.6
2017-09-25T06:08:30.160Z,16.63
2017-09-25T06:09:30.138Z,16.56
2017-09-25T06:10:30.123Z,16.75
2017-09-25T06:11:29.788Z,16.74
2017-09-25T06:12:30.101Z,16.64
2017-09-25T06:13:29.754Z,16.69
2017-09-25T06:14:30.060Z,16.61
2017-09-25T06:15:30.033Z,16.69
2017-09-25T06:16:30.012Z,16.56
2017-09-25T06:17:29.379Z,16.64
2017-09-25T06:18:30.000Z,16.75
2017-09-25T06:19:29.961Z,16.69
2017-09-25T06:20:29.949Z,16.78
2017-09-25T06:21:29.618Z,16.81
2017-09-25T06:22:29.925Z,16.78
2017-09-25T06:23:29.579Z,16.79
2017-09-25T06:24:29.570Z,16.9
2017-09-25T06:25:29.852Z,16.97
2017-09-25T06:26:29.549Z,17.06
2017-09-25T06:27:29.532Z,17.09
2017-09-25T06:28:29.190Z,17.12
2017-09-25T06:29:29.791Z,17.14
2017-09-25T06:30:29.776Z,17.16
2017-09-25T06:31:29.459Z,17.22
2017-09-25T06:32:29.429Z,17.22
2017-09-25T06:33:29.740Z,17.29
2017-09-25T06:34:29.720Z,17.42
2017-09-25T06:35:29.386Z,17.46
2017-09-25T06:36:29.371Z,17.51
2017-09-25T06:37:29.049Z,17.62
2017-09-25T06:38:29.671Z,17.58
2017-09-25T06:39:29.634Z,17.68
2017-09-25T06:40:29.349Z,17.75
2017-09-25T06:41:29.290Z,17.86
2017-09-25T06:42:29.667Z,18.15
2017-09-25T06:43:29.567Z,18.42
2017-09-25T06:44:29.261Z,18.81
2017-09-25T06:45:28.917Z,19.23
2017-09-25T06:46:29.270Z,19.55
2017-09-25T06:47:29.511Z,19.83
2017-09-25T06:48:28.885Z,20.17
2017-09-25T06:49:29.169Z,20.33
2017-09-25T06:50:29.480Z,20.66
2017-09-25T06:51:29.449Z,20.82
2017-09-25T06:52:29.130Z,20.92
2017-09-25T06:53:29.110Z,20.94
2017-09-25T06:54:29.417Z,20.85
2017-09-25T06:55:29.090Z,20.87
2017-09-25T06:56:29.110Z,21
2017-09-25T06:57:29.060Z,21.09
2017-09-25T06:58:29.051Z,21.26
2017-09-25T06:59:29.033Z,21.43
2017-09-25T07:00:29.048Z,21.58
2017-09-25T07:01:29.331Z,21.64
2017-09-25T07:02:28.782Z,21.83
2017-09-25T07:03:29.313Z,21.65
2017-09-25T07:04:29.288Z,21.68
2017-09-25T07:05:29.273Z,21.61
2017-09-25T07:06:28.630Z,21.39
2017-09-25T07:07:28.929Z,21.52
2017-09-25T07:08:28.916Z,21.47
2017-09-25T07:09:29.211Z,21.66
2017-09-25T07:10:29.212Z,21.47
2017-09-25T07:11:28.881Z,21.43
2017-09-25T07:12:28.921Z,21.33
2017-09-25T07:13:29.171Z,21.09
2017-09-25T07:14:28.851Z,20.69
2017-09-25T07:15:28.821Z,20.33
2017-09-25T07:16:29.118Z,20.22
2017-09-25T07:17:29.110Z,19.93
2017-09-25T07:18:28.481Z,19.73
2017-09-25T07:19:28.460Z,19.61
2017-09-25T07:20:28.829Z,19.46
2017-09-25T07:21:28.753Z,19.38
2017-09-25T07:22:28.740Z,19.12
2017-09-25T07:23:28.721Z,19.06
2017-09-25T07:24:28.728Z,18.84
2017-09-25T07:25:28.703Z,18.84
2017-09-25T07:26:28.993Z,18.66
2017-09-25T07:27:28.991Z,18.62
2017-09-25T07:28:28.663Z,18.52
2017-09-25T07:29:29.031Z,18.45
2017-09-25T07:30:28.951Z,18.44
2017-09-25T07:31:28.623Z,18.41
2017-09-25T07:32:28.929Z,18.27
2017-09-25T07:33:28.594Z,18.15
2017-09-25T07:34:28.880Z,18.23
2017-09-25T07:35:28.868Z,18.2
2017-09-25T07:36:28.854Z,18.2
2017-09-25T07:37:28.831Z,18.18
2017-09-25T07:38:28.503Z,18.14
2017-09-25T07:39:28.823Z,18.18
2017-09-25T07:40:28.801Z,18.12
2017-09-25T07:41:28.829Z,18.14
2017-09-25T07:42:28.762Z,18.19
2017-09-25T07:43:28.743Z,18.08
2017-09-25T07:44:28.740Z,18.3
2017-09-25T07:45:28.730Z,18.48
2017-09-25T07:46:28.710Z,18.77
2017-09-25T07:47:28.380Z,19.3
2017-09-25T07:48:28.664Z,19.96
2017-09-25T07:49:28.661Z,20.36
2017-09-25T07:50:28.653Z,20.73
2017-09-25T07:51:28.316Z,20.92
2017-09-25T07:52:28.413Z,21.25
2017-09-25T07:53:28.311Z,21.61
2017-09-25T07:54:28.340Z,22.4
2017-09-25T07:55:28.267Z,22.58
2017-09-25T07:56:28.712Z,22.84
2017-09-25T07:57:28.250Z,23.33
2017-09-25T07:58:28.240Z,23.7
2017-09-25T07:59:28.551Z,24.32
2017-09-25T08:00:28.551Z,24.49
2017-09-25T08:01:28.212Z,24.9
2017-09-25T08:02:28.600Z,24.95
2017-09-25T08:03:28.226Z,25.1
2017-09-25T08:04:28.191Z,24.77
2017-09-25T08:05:28.500Z,24.22
2017-09-25T08:06:28.549Z,23.75
2017-09-25T08:07:27.861Z,23.12
2017-09-25T08:08:28.480Z,22.73
2017-09-25T08:09:28.468Z,22.66
2017-09-25T08:10:28.477Z,22.59
2017-09-25T08:11:27.827Z,22.59
2017-09-25T08:12:28.459Z,22.55
2017-09-25T08:13:28.494Z,22.36
2017-09-25T08:14:28.110Z,22.1
2017-09-25T08:15:28.100Z,22.11
2017-09-25T08:16:28.105Z,21.83
2017-09-25T08:17:28.413Z,21.49
2017-09-25T08:18:28.418Z,21.13
2017-09-25T08:19:28.370Z,21.1
2017-09-25T08:20:28.369Z,20.91
2017-09-25T08:21:28.363Z,20.91
2017-09-25T08:22:28.355Z,20.67
2017-09-25T08:23:28.362Z,20.43
2017-09-25T08:24:28.372Z,20.41
2017-09-25T08:25:28.322Z,20.58
2017-09-25T08:26:28.000Z,20.78
2017-09-25T08:27:28.300Z,21.19
2017-09-25T08:28:27.980Z,21.5
2017-09-25T08:29:28.289Z,21.99
2017-09-25T08:30:28.309Z,22.37
2017-09-25T08:31:28.555Z,22.91
2017-09-25T08:32:28.553Z,23.5
2017-09-25T08:33:28.277Z,23.77
2017-09-25T08:34:28.261Z,24.12
2017-09-25T08:35:28.246Z,24.49
2017-09-25T08:36:27.600Z,24.75
2017-09-25T08:37:28.225Z,24.96
2017-09-25T08:38:27.901Z,25.07
2017-09-25T08:39:28.215Z,25.4
2017-09-25T08:40:27.580Z,25.45
2017-09-25T08:41:28.190Z,25.54
2017-09-25T08:42:28.182Z,25.36
2017-09-25T08:43:28.182Z,24.95
2017-09-25T08:44:27.559Z,24.42
2017-09-25T08:45:28.181Z,23.63
2017-09-25T08:46:27.842Z,22.88
2017-09-25T08:47:27.848Z,22.45
2017-09-25T08:48:27.842Z,22.05
2017-09-25T08:49:28.143Z,21.71
2017-09-25T08:50:27.820Z,21.8
2017-09-25T08:51:27.500Z,21.68
2017-09-25T08:52:28.113Z,21.5
2017-09-25T08:53:27.809Z,21.54
2017-09-25T08:54:28.102Z,21.44
2017-09-25T08:55:28.082Z,21.58
2017-09-25T08:56:27.769Z,21.25
2017-09-25T08:57:27.756Z,21.59
2017-09-25T08:58:27.749Z,22.06
2017-09-25T08:59:27.761Z,22.32
2017-09-25T09:00:27.760Z,22.62
2017-09-25T09:01:27.730Z,23.06
2017-09-25T09:02:27.721Z,23.4
2017-09-25T09:03:28.030Z,23.78
2017-09-25T09:04:28.011Z,24.25
2017-09-25T09:05:28.010Z,24.74
2017-09-25T09:06:28.000Z,25.03
2017-09-25T09:07:28.010Z,25.49
2017-09-25T09:08:27.380Z,25.62
2017-09-25T09:09:28.020Z,25.76
2017-09-25T09:10:27.350Z,25.82
2017-09-25T09:11:27.660Z,26.01
2017-09-25T09:12:27.977Z,25.82
2017-09-25T09:13:27.952Z,24.9
2017-09-25T09:14:27.661Z,24.62
2017-09-25T09:15:27.949Z,24.44
2017-09-25T09:16:27.953Z,24.43
2017-09-25T09:17:27.620Z,24.46
2017-09-25T09:18:27.663Z,24.46
2017-09-25T09:19:27.931Z,24.47
2017-09-25T09:20:27.599Z,24.75
2017-09-25T09:21:27.610Z,25.02
2017-09-25T09:22:27.903Z,25.36
2017-09-25T09:23:27.902Z,25.71
2017-09-25T09:24:27.260Z,25.99
2017-09-25T09:25:27.889Z,26.15
2017-09-25T09:26:27.886Z,25.92
2017-09-25T09:27:27.567Z,25.73
2017-09-25T09:28:27.882Z,25.36
2017-09-25T09:29:27.881Z,25.29
2017-09-25T09:30:27.540Z,25.27
2017-09-25T09:31:27.844Z,25.14
2017-09-25T09:32:27.822Z,24.93
2017-09-25T09:33:27.531Z,24.75
2017-09-25T09:34:27.834Z,24.85
2017-09-25T09:35:27.814Z,24.55
2017-09-25T09:36:27.497Z,24.29
2017-09-25T09:37:27.527Z,24.06
2017-09-25T09:38:27.489Z,23.96
2017-09-25T09:39:27.790Z,24.02
2017-09-25T09:40:27.777Z,23.85
2017-09-25T09:41:27.451Z,23.67
2017-09-25T09:42:27.751Z,23.41
2017-09-25T09:43:27.431Z,23.02
2017-09-25T09:44:27.419Z,22.8
2017-09-25T09:45:27.756Z,22.55
2017-09-25T09:46:27.421Z,22.37
2017-09-25T09:47:27.402Z,22.17
2017-09-25T09:48:27.718Z,21.97
2017-09-25T09:49:27.721Z,21.99
2017-09-25T09:50:27.359Z,22.03
2017-09-25T09:51:27.657Z,22.11
2017-09-25T09:52:27.041Z,22.14
2017-09-25T09:53:27.658Z,22.21
2017-09-25T09:54:27.021Z,22.39
2017-09-25T09:55:27.309Z,22.43
2017-09-25T09:56:27.301Z,22.4
2017-09-25T09:57:27.610Z,22.45
2017-09-25T09:58:27.284Z,22.52
2017-09-25T09:59:27.589Z,22.5
2017-09-25T10:00:26.943Z,22.52
2017-09-25T10:01:27.561Z,22.55
2017-09-25T10:02:26.921Z,22.4
2017-09-25T10:03:26.911Z,22.39
2017-09-25T10:04:27.524Z,22.4
2017-09-25T10:05:27.519Z,22.54
2017-09-25T10:06:27.510Z,22.5
2017-09-25T10:07:27.190Z,22.4
2017-09-25T10:08:27.470Z,22.4
2017-09-25T10:09:27.207Z,22.7
2017-09-25T10:10:27.469Z,22.88
2017-09-25T10:11:27.572Z,22.98
2017-09-25T10:12:27.141Z,22.99
2017-09-25T10:13:27.430Z,22.89
2017-09-25T10:14:27.101Z,22.91
2017-09-25T10:15:27.114Z,22.69
2017-09-25T10:16:27.171Z,22.79
2017-09-25T10:17:27.074Z,22.62
2017-09-25T10:18:27.401Z,22.67
2017-09-25T10:19:26.731Z,23.07
2017-09-25T10:20:27.052Z,22.92
2017-09-25T10:21:27.032Z,23.03
2017-09-25T10:22:27.114Z,23.25
2017-09-25T10:23:26.998Z,23.28
2017-09-25T10:24:26.992Z,23.47
2017-09-25T10:25:27.390Z,23.5
2017-09-25T10:26:26.701Z,23.41
2017-09-25T10:27:26.954Z,23.33
2017-09-25T10:28:27.463Z,23.36
2017-09-25T10:29:27.281Z,23.14
2017-09-25T10:30:26.629Z,22.99
2017-09-25T10:31:26.919Z,22.99
2017-09-25T10:32:26.954Z,23.06
2017-09-25T10:33:26.592Z,22.72
2017-09-25T10:34:27.194Z,22.47
2017-09-25T10:35:26.872Z,22.25
2017-09-25T10:36:26.862Z,22.24
2017-09-25T10:37:27.163Z,22.33
2017-09-25T10:38:27.383Z,22.22
2017-09-25T10:39:27.159Z,22.2
2017-09-25T10:40:26.815Z,22.08
2017-09-25T10:41:27.111Z,22.11
2017-09-25T10:42:26.484Z,22.05
2017-09-25T10:43:27.093Z,22.3
2017-09-25T10:44:27.082Z,22.2
2017-09-25T10:45:26.752Z,22.11
2017-09-25T10:46:27.063Z,21.96
2017-09-25T10:47:27.100Z,21.76
2017-09-25T10:48:26.412Z,21.76
2017-09-25T10:49:26.729Z,21.73
2017-09-25T10:50:27.007Z,21.68
2017-09-25T10:51:27.008Z,21.73
2017-09-25T10:52:26.672Z,21.59
2017-09-25T10:53:26.660Z,21.5
2017-09-25T10:54:26.970Z,21.43
2017-09-25T10:55:26.679Z,21.37
2017-09-25T10:56:26.310Z,21.34
2017-09-25T10:57:26.296Z,21.43
2017-09-25T10:58:26.690Z,21.43
2017-09-25T10:59:26.899Z,21.56
2017-09-25T11:00:26.880Z,21.66
2017-09-25T11:01:26.561Z,21.54
2017-09-25T11:02:26.540Z,21.46
2017-09-25T11:03:26.542Z,21.4
2017-09-25T11:04:26.530Z,21.5
2017-09-25T11:05:26.513Z,21.33
2017-09-25T11:06:26.510Z,21.43
2017-09-25T11:07:26.798Z,21.46
2017-09-25T11:08:26.801Z,21.4
2017-09-25T11:09:26.472Z,21.25
2017-09-25T11:10:26.502Z,21.24
2017-09-25T11:11:26.441Z,20.79
2017-09-25T11:12:26.419Z,20.69
2017-09-25T11:13:26.101Z,20.54
2017-09-25T11:14:26.390Z,20.64
2017-09-25T11:15:26.392Z,20.76
2017-09-25T11:16:26.681Z,20.78
2017-09-25T11:17:26.376Z,20.88
2017-09-25T11:18:26.380Z,20.89
2017-09-25T11:19:26.642Z,20.7
2017-09-25T11:20:26.631Z,20.49
2017-09-25T11:21:26.322Z,20.35
2017-09-25T11:22:26.305Z,20.43
2017-09-25T11:23:26.670Z,20.36
2017-09-25T11:24:26.594Z,20.38
2017-09-25T11:25:26.570Z,20.22
2017-09-25T11:26:26.570Z,20.36
2017-09-25T11:27:26.561Z,20.28
2017-09-25T11:28:26.256Z,20.29
2017-09-25T11:29:26.528Z,20.36
2017-09-25T11:30:26.511Z,20.36
2017-09-25T11:31:26.500Z,20.51
2017-09-25T11:32:26.477Z,20.63
2017-09-25T11:33:25.840Z,20.7
2017-09-25T11:34:26.462Z,21.04
2017-09-25T11:35:26.539Z,21.17
2017-09-25T11:36:26.441Z,21.28
2017-09-25T11:37:26.418Z,21.17
2017-09-25T11:38:26.414Z,21.19
2017-09-25T11:39:26.402Z,21.25
2017-09-25T11:40:26.378Z,21.37
2017-09-25T11:41:26.380Z,21.44
2017-09-25T11:42:26.346Z,21.5
2017-09-25T11:43:26.363Z,21.47
2017-09-25T11:44:26.322Z,21.39
2017-09-25T11:45:26.024Z,21.37
2017-09-25T11:46:26.284Z,21.29
2017-09-25T11:47:26.283Z,21.17
2017-09-25T11:48:26.272Z,21.25
2017-09-25T11:49:26.261Z,21.22
2017-09-25T11:50:26.238Z,21.26
2017-09-25T11:51:25.909Z,21.37
2017-09-25T11:52:26.222Z,21.47
2017-09-25T11:53:26.190Z,21.5
2017-09-25T11:54:25.557Z,21.46
2017-09-25T11:55:25.866Z,21.47
2017-09-25T11:56:26.152Z,21.47
2017-09-25T11:57:25.900Z,21.44
2017-09-25T11:58:26.152Z,21.41
2017-09-25T11:59:25.810Z,21.34
2017-09-25T12:00:26.106Z,21.37
2017-09-25T12:01:26.090Z,21.46
2017-09-25T12:02:25.758Z,21.36
2017-09-25T12:03:26.069Z,21.4
2017-09-25T12:04:26.058Z,21.43
2017-09-25T12:05:25.731Z,21.34
2017-09-25T12:06:25.714Z,21.41
2017-09-25T12:07:25.727Z,21.46
2017-09-25T12:08:26.032Z,21.36
2017-09-25T12:09:26.018Z,21.26
2017-09-25T12:10:26.017Z,21.19
2017-09-25T12:11:25.968Z,21.19
2017-09-25T12:12:25.959Z,21.25
2017-09-25T12:13:25.929Z,21.09
2017-09-25T12:14:25.939Z,21.07
2017-09-25T12:15:25.585Z,21.18
2017-09-25T12:16:25.909Z,21.21
2017-09-25T12:17:25.883Z,21.31
2017-09-25T12:18:25.877Z,21.22
2017-09-25T12:19:25.550Z,21.4
2017-09-25T12:20:25.850Z,21.52
2017-09-25T12:21:25.503Z,21.44
2017-09-25T12:22:25.801Z,21.44
2017-09-25T12:23:25.800Z,21.43
2017-09-25T12:24:25.819Z,21.29
2017-09-25T12:25:25.780Z,21.19
2017-09-25T12:26:25.470Z,21.07
2017-09-25T12:27:25.749Z,21.02
2017-09-25T12:28:25.739Z,20.92
2017-09-25T12:29:25.456Z,20.82
2017-09-25T12:30:25.698Z,20.67
2017-09-25T12:31:25.689Z,20.72
2017-09-25T12:32:25.411Z,20.67
2017-09-25T12:33:25.667Z,20.76
2017-09-25T12:34:25.339Z,20.7
2017-09-25T12:35:25.368Z,20.48
2017-09-25T12:36:25.631Z,20.51
2017-09-25T12:37:25.608Z,20.55
2017-09-25T12:38:25.598Z,20.69
2017-09-25T12:39:25.588Z,20.57
2017-09-25T12:40:25.268Z,20.69
2017-09-25T12:41:25.647Z,20.82
2017-09-25T12:42:24.931Z,20.84
2017-09-25T12:43:25.540Z,20.82
2017-09-25T12:44:25.317Z,20.87
2017-09-25T12:45:25.519Z,20.78
2017-09-25T12:46:25.500Z,20.81
2017-09-25T12:47:25.540Z,20.94
2017-09-25T12:48:25.475Z,21.06
2017-09-25T12:49:25.191Z,21.03
2017-09-25T12:50:25.449Z,21.21
2017-09-25T12:51:25.440Z,21.29
2017-09-25T12:52:25.112Z,21.26
2017-09-25T12:53:25.400Z,21.25
2017-09-25T12:54:25.495Z,21.17
2017-09-25T12:55:25.061Z,21.04